Time;durP1;ratioP1;P1;durP2;ratioP2;P2;SDS_P1;SDS_P2;PMS_P1;PMS_P2;Temp;Humidity;BMP_temperature;BMP_pressure;BME280_temperature;BME280_humidity;BME280_pressure;Samples;Min_cycle;Max_cycle;Signal;HPM_P1;HPM_P2
2023/12/25 00:00:07;;;;;;;5.53;3.03;;;;;;;16.02;61.17;99810.97;684843;28;1245;-89
2023/12/25 00:00:28;;;;;;;4.78;2.90;;;;;;;15.99;61.07;99787.34;682570;28;1225;-90
2023/12/25 00:00:52;;;;;;;5.10;2.95;;;;;;;15.96;60.99;99782.97;682377;28;1315;-88
2023/12/25 00:01:12;;;;;;;3.90;2.90;;;;;;;16.00;60.93;99789.06;682449;29;1088;-90
2023/12/25 00:01:33;;;;;;;4.10;2.92;;;;;;;16.01;60.98;99796.06;679800;29;1087;-89
2023/12/25 00:01:54;;;;;;;5.20;2.83;;;;;;;15.97;61.00;99791.75;679124;29;1158;-89
2023/12/25 00:02:17;;;;;;;5.13;2.75;;;;;;;16.06;61.00;99794.28;682526;29;1241;-89
2023/12/25 00:02:38;;;;;;;3.97;2.65;;;;;;;15.95;61.05;99788.25;674340;29;1441;-90
2023/12/25 00:02:59;;;;;;;2.88;2.50;;;;;;;16.00;61.08;99791.69;681738;28;1552;-88
2023/12/25 00:03:20;;;;;;;2.88;2.50;;;;;;;16.03;61.12;99791.66;682482;29;1220;-89
2023/12/25 00:03:41;;;;;;;2.78;2.40;;;;;;;15.94;61.01;99782.13;679929;29;1327;-89
2023/12/25 00:04:02;;;;;;;2.90;2.40;;;;;;;15.97;61.09;99775.97;684658;28;1149;-90
2023/12/25 00:04:23;;;;;;;3.22;2.50;;;;;;;16.00;61.01;99786.44;685311;28;1258;-89
2023/12/25 00:04:44;;;;;;;3.38;2.70;;;;;;;16.01;61.13;99798.72;680608;29;1198;-89
2023/12/25 00:05:07;;;;;;;3.22;2.65;;;;;;;15.86;60.92;99779.56;682250;29;1336;-90
2023/12/25 00:05:28;;;;;;;3.20;2.50;;;;;;;15.92;61.25;99773.34;679908;29;1258;-87
2023/12/25 00:05:48;;;;;;;3.78;2.50;;;;;;;15.99;61.15;99792.59;679625;29;1275;-90
2023/12/25 00:06:09;;;;;;;4.85;2.83;;;;;;;15.97;61.05;99791.75;679444;29;1222;-89
2023/12/25 00:06:30;;;;;;;5.22;3.00;;;;;;;15.87;60.92;99804.97;679933;29;1130;-90
2023/12/25 00:06:51;;;;;;;4.68;3.10;;;;;;;15.94;60.98;99778.59;679707;29;1269;-90
2023/12/25 00:07:12;;;;;;;4.43;2.93;;;;;;;15.98;60.93;99789.06;679612;29;1911;-89
2023/12/25 00:07:33;;;;;;;4.60;2.87;;;;;;;15.92;60.77;99783.03;680011;29;1205;-89
2023/12/25 00:07:53;;;;;;;4.00;2.40;;;;;;;16.01;60.99;99788.19;682031;29;1212;-88
2023/12/25 00:08:14;;;;;;;4.70;2.22;;;;;;;16.00;60.93;99789.06;677119;29;1284;-88
2023/12/25 00:08:35;;;;;;;4.00;2.03;;;;;;;15.98;61.04;99793.50;677322;29;1281;-89
2023/12/25 00:08:57;;;;;;;4.40;2.20;;;;;;;15.93;61.07;99787.38;679972;29;1498;-89
2023/12/25 00:09:20;;;;;;;4.00;2.30;;;;;;;15.93;61.11;99797.91;682447;29;1271;-89
2023/12/25 00:09:41;;;;;;;4.15;2.38;;;;;;;15.91;61.19;99797.91;685228;28;1315;-89
2023/12/25 00:10:01;;;;;;;3.07;2.10;;;;;;;15.93;61.36;99784.75;685162;28;1417;-89
2023/12/25 00:10:22;;;;;;;3.15;2.08;;;;;;;15.92;61.24;99793.53;679800;29;1190;-89
2023/12/25 00:10:43;;;;;;;4.20;2.42;;;;;;;15.93;61.11;99798.81;685210;28;1421;-90
2023/12/25 00:11:03;;;;;;;3.70;2.40;;;;;;;15.95;61.30;99807.53;686128;28;1297;-90
2023/12/25 00:11:25;;;;;;;3.47;2.40;;;;;;;15.98;61.18;99790.84;687530;28;1237;-89
2023/12/25 00:11:46;;;;;;;4.30;2.10;;;;;;;15.97;61.11;99776.81;682477;29;1380;-89
2023/12/25 00:12:09;;;;;;;4.55;2.20;;;;;;;16.05;60.93;99810.97;682288;28;1130;-89
2023/12/25 00:12:29;;;;;;;4.03;2.35;;;;;;;16.06;61.01;99788.13;682558;29;820;-89
2023/12/25 00:12:50;;;;;;;3.53;2.50;;;;;;;16.04;60.71;99790.78;680027;29;1099;-89
2023/12/25 00:13:12;;;;;;;3.80;2.80;;;;;;;16.00;61.01;99794.34;679596;29;1109;-88
2023/12/25 00:13:33;;;;;;;3.28;2.60;;;;;;;15.83;61.02;99787.50;682568;29;1244;-89
2023/12/25 00:13:55;;;;;;;3.92;2.55;;;;;;;15.85;61.27;99798.84;682378;29;1125;-90
2023/12/25 00:14:15;;;;;;;5.28;2.35;;;;;;;15.90;61.26;99797.06;677199;29;1119;-90
2023/12/25 00:14:36;;;;;;;6.45;2.80;;;;;;;15.75;61.24;99778.78;679858;29;1359;-90
2023/12/25 00:15:03;;;;;;;6.07;2.70;;;;;;;15.75;61.32;99774.38;683150;28;1336;-91
2023/12/25 00:15:24;;;;;;;3.70;2.38;;;;;;;15.84;61.32;99799.75;679862;29;1371;-92
2023/12/25 00:15:48;;;;;;;2.78;2.00;;;;;;;15.86;61.32;99805.00;679901;29;1197;-90
2023/12/25 00:16:11;;;;;;;2.30;1.77;;;;;;;15.70;61.23;99783.22;684664;28;1225;-91
2023/12/25 00:16:34;;;;;;;2.72;2.00;;;;;;;15.71;61.53;99779.69;677306;29;1326;-90
2023/12/25 00:16:57;;;;;;;3.90;2.30;;;;;;;15.65;61.55;99799.03;680217;28;1257;-90
2023/12/25 00:17:21;;;;;;;4.10;2.40;;;;;;;15.66;61.61;99786.78;682682;29;1310;-92
2023/12/25 00:17:45;;;;;;;3.00;2.10;;;;;;;15.72;61.66;99789.31;682182;29;1232;-92
2023/12/25 00:18:06;;;;;;;2.10;1.90;;;;;;;15.73;61.68;99794.59;680652;28;1270;-90
2023/12/25 00:18:29;;;;;;;2.33;1.90;;;;;;;15.73;61.43;99797.22;674749;29;1163;-91
2023/12/25 00:18:50;;;;;;;2.55;2.00;;;;;;;15.62;61.64;99771.00;678699;29;1489;-92
2023/12/25 00:19:14;;;;;;;2.97;2.10;;;;;;;15.70;61.46;99804.25;685170;28;1327;-92
2023/12/25 00:19:39;;;;;;;3.83;2.58;;;;;;;15.52;61.60;99790.38;682417;29;1436;-93
2023/12/25 00:20:03;;;;;;;3.92;2.60;;;;;;;15.59;61.65;99788.56;682851;28;1407;-92
2023/12/25 00:20:24;;;;;;;3.03;2.38;;;;;;;15.59;61.59;99781.56;682606;29;1393;-92
2023/12/25 00:20:45;;;;;;;3.92;2.13;;;;;;;15.55;61.62;99779.84;682538;29;1394;-91
2023/12/25 00:21:08;;;;;;;3.90;2.10;;;;;;;15.53;61.61;99792.13;682412;28;1596;-92
2023/12/25 00:21:32;;;;;;;3.28;2.00;;;;;;;15.70;61.75;99809.50;679315;29;1441;-91
2023/12/25 00:21:53;;;;;;;2.30;2.10;;;;;;;15.63;61.60;99812.19;679393;29;1361;-90
2023/12/25 00:22:22;;;;;;;2.42;2.10;;;;;;;15.55;61.86;99790.34;680264;29;1320;-92
2023/12/25 00:22:45;;;;;;;4.57;2.30;;;;;;;15.63;61.74;99793.78;685512;28;1214;-93
2023/12/25 00:23:09;;;;;;;4.57;2.30;;;;;;;15.73;61.73;99805.09;682857;28;1506;-93
2023/12/25 00:23:36;;;;;;;2.92;2.20;;;;;;;15.71;61.62;99784.97;680113;29;1307;-92
2023/12/25 00:23:57;;;;;;;2.90;2.03;;;;;;;15.73;61.57;99793.72;679815;29;1315;-91
2023/12/25 00:24:17;;;;;;;2.72;2.10;;;;;;;15.63;61.43;99778.00;679727;29;1355;-91
2023/12/25 00:24:40;;;;;;;2.80;2.30;;;;;;;15.67;61.56;99792.00;677453;29;1224;-90
2023/12/25 00:25:01;;;;;;;2.50;2.20;;;;;;;15.70;61.49;99783.22;680034;29;1238;-91
2023/12/25 00:25:25;;;;;;;2.37;2.13;;;;;;;15.67;61.77;99789.38;679875;29;1579;-92
2023/12/25 00:25:51;;;;;;;2.10;1.80;;;;;;;15.58;61.45;99779.81;682736;29;1238;-92
2023/12/25 00:26:14;;;;;;;2.45;1.92;;;;;;;15.65;61.61;99777.13;685287;28;1146;-91
2023/12/25 00:26:46;;;;;;;2.30;1.80;;;;;;;15.65;61.53;99792.91;682649;29;1623;-91
2023/12/25 00:27:07;;;;;;;2.20;1.88;;;;;;;15.57;61.55;99782.47;678463;29;1519;-91
2023/12/25 00:27:28;;;;;;;2.72;1.90;;;;;;;15.51;61.72;99783.38;687093;28;1919;-90
2023/12/25 00:27:49;;;;;;;3.20;2.10;;;;;;;15.63;61.67;99788.53;679876;29;1234;-92
2023/12/25 00:28:10;;;;;;;2.60;2.10;;;;;;;15.75;61.67;99802.47;685224;28;1286;-92
2023/12/25 00:28:33;;;;;;;2.20;1.92;;;;;;;15.69;61.50;99787.63;685317;28;1166;-92
2023/12/25 00:28:59;;;;;;;2.40;2.00;;;;;;;15.62;61.45;99778.91;680075;29;1218;-94
2023/12/25 00:29:20;;;;;;;2.60;2.10;;;;;;;15.60;61.56;99785.94;682677;28;1233;-93
2023/12/25 00:29:41;;;;;;;2.63;1.95;;;;;;;15.58;61.44;99782.44;682776;29;1189;-91
2023/12/25 00:30:02;;;;;;;2.65;1.85;;;;;;;15.65;61.61;99777.13;680871;29;1292;-90
2023/12/25 00:30:23;;;;;;;2.45;1.88;;;;;;;15.68;61.57;99785.84;685267;28;1307;-91
2023/12/25 00:30:44;;;;;;;2.97;2.00;;;;;;;15.69;61.51;99786.75;687738;28;1614;-91
2023/12/25 00:31:05;;;;;;;3.50;2.03;;;;;;;15.67;61.51;99772.75;679660;28;1239;-90
2023/12/25 00:31:29;;;;;;;3.65;2.00;;;;;;;15.72;61.26;99778.81;682605;28;1499;-90
2023/12/25 00:31:50;;;;;;;3.72;2.20;;;;;;;15.66;61.51;99781.50;677015;29;1187;-90
2023/12/25 00:32:10;;;;;;;4.88;2.47;;;;;;;15.65;61.61;99793.78;677471;29;1334;-90
2023/12/25 00:32:31;;;;;;;4.70;2.50;;;;;;;15.57;61.51;99767.56;685182;28;1179;-90
2023/12/25 00:32:52;;;;;;;4.57;2.50;;;;;;;15.58;61.38;99779.81;682469;28;1361;-91
2023/12/25 00:33:13;;;;;;;3.45;2.55;;;;;;;15.59;61.73;99805.22;682428;29;1264;-91
2023/12/25 00:33:34;;;;;;;3.78;2.85;;;;;;;15.52;61.76;99782.50;680232;29;1205;-91
2023/12/25 00:33:57;;;;;;;3.75;2.95;;;;;;;15.59;61.83;99791.19;677373;29;1150;-92
2023/12/25 00:34:18;;;;;;;3.95;2.90;;;;;;;15.63;61.74;99803.44;680062;29;1208;-91
2023/12/25 00:34:42;;;;;;;4.82;3.38;;;;;;;15.56;61.81;99792.09;680401;29;1267;-92
2023/12/25 00:35:04;;;;;;;5.93;3.95;;;;;;;15.60;61.70;99799.09;679834;29;1174;-91
2023/12/25 00:35:25;;;;;;;6.47;4.05;;;;;;;15.68;61.62;99795.50;682682;29;1231;-92
2023/12/25 00:35:45;;;;;;;5.85;3.63;;;;;;;15.60;61.53;99783.31;680023;29;1516;-91
2023/12/25 00:36:07;;;;;;;5.50;3.20;;;;;;;15.70;61.58;99804.25;681390;29;1297;-92
2023/12/25 00:36:32;;;;;;;5.05;3.10;;;;;;;15.71;61.48;99785.84;688182;28;1126;-92
2023/12/25 00:36:53;;;;;;;4.45;2.85;;;;;;;15.59;61.55;99786.81;682437;29;1147;-91
2023/12/25 00:37:19;;;;;;;3.92;2.55;;;;;;;15.57;61.63;99793.84;682583;29;1384;-92
2023/12/25 00:37:45;;;;;;;4.38;2.67;;;;;;;15.56;61.88;99791.22;680045;29;1297;-93
2023/12/25 00:38:09;;;;;;;3.53;2.70;;;;;;;15.69;61.68;99799.88;683733;28;1528;-92
2023/12/25 00:38:34;;;;;;;3.40;2.80;;;;;;;15.74;61.67;99809.47;679691;29;1319;-91
2023/12/25 00:38:55;;;;;;;4.03;2.53;;;;;;;15.52;61.63;99786.88;679667;29;1417;-90
2023/12/25 00:39:18;;;;;;;4.80;2.50;;;;;;;15.57;61.60;99788.59;682770;28;1157;-91
2023/12/25 00:39:40;;;;;;;2.83;2.13;;;;;;;15.60;61.65;99812.22;682703;29;1278;-91
2023/12/25 00:40:04;;;;;;;2.28;1.85;;;;;;;15.54;61.65;99785.97;679894;29;1225;-92
2023/12/25 00:40:27;;;;;;;2.97;2.20;;;;;;;15.60;61.88;99806.97;684911;28;1320;-90
2023/12/25 00:40:48;;;;;;;3.10;2.05;;;;;;;15.47;61.62;99792.16;679899;29;1116;-90
2023/12/25 00:41:12;;;;;;;2.08;1.75;;;;;;;15.48;61.82;99796.53;682417;28;1284;-91
2023/12/25 00:41:38;;;;;;;1.83;1.58;;;;;;;15.61;61.80;99800.81;682517;29;1400;-90
2023/12/25 00:42:02;;;;;;;2.00;1.70;;;;;;;15.61;61.59;99800.81;679457;29;1428;-90
2023/12/25 00:42:22;;;;;;;2.00;1.70;;;;;;;15.50;61.62;99792.16;682642;29;1114;-90
2023/12/25 00:42:43;;;;;;;2.20;1.70;;;;;;;15.65;61.90;99800.78;680103;29;1238;-91
2023/12/25 00:43:04;;;;;;;3.10;1.88;;;;;;;15.69;61.74;99815.66;684719;28;1259;-92
2023/12/25 00:43:31;;;;;;;3.03;1.73;;;;;;;15.59;61.70;99812.22;677340;29;1171;-91
2023/12/25 00:44:02;;;;;;;2.20;1.70;;;;;;;15.53;61.75;99791.25;682382;28;1287;-90
2023/12/25 00:45:13;;;;;;;2.08;1.80;;;;;;;15.68;61.72;99811.28;682668;28;1364;-90
2023/12/25 00:45:34;;;;;;;2.20;2.00;;;;;;;15.73;61.65;99812.13;685663;28;1388;-91
2023/12/25 00:45:55;;;;;;;2.50;2.30;;;;;;;15.51;61.83;99809.69;677597;29;1360;-90
2023/12/25 00:46:17;;;;;;;3.90;2.40;;;;;;;15.65;61.91;99821.81;680331;29;1475;-89
2023/12/25 00:46:42;;;;;;;4.30;2.50;;;;;;;15.52;61.85;99811.41;681272;29;1216;-90
2023/12/25 00:47:03;;;;;;;3.40;2.60;;;;;;;15.47;62.03;99802.69;680195;29;1324;-90
2023/12/25 00:47:24;;;;;;;3.60;2.83;;;;;;;15.60;62.05;99804.34;683041;29;1981;-90
2023/12/25 00:47:45;;;;;;;3.30;2.83;;;;;;;15.58;61.89;99798.22;683040;29;1184;-89
2023/12/25 00:48:05;;;;;;;3.40;2.90;;;;;;;15.59;61.79;99812.22;681369;29;1339;-90
2023/12/25 00:48:27;;;;;;;2.90;2.60;;;;;;;15.66;61.74;99797.28;685345;28;1472;-90
2023/12/25 00:48:51;;;;;;;3.05;2.50;;;;;;;15.70;61.66;99796.38;677783;29;1334;-90
2023/12/25 00:49:14;;;;;;;3.75;2.65;;;;;;;15.54;61.51;99800.91;682278;29;1407;-90
2023/12/25 00:49:37;;;;;;;4.13;3.03;;;;;;;15.56;61.73;99807.88;679517;29;1486;-90
2023/12/25 00:49:58;;;;;;;6.10;3.10;;;;;;;15.55;61.68;99785.09;680211;29;1234;-90
2023/12/25 00:50:19;;;;;;;5.85;3.13;;;;;;;15.63;61.55;99801.66;682801;28;1501;-90
2023/12/25 00:50:42;;;;;;;4.53;2.63;;;;;;;15.72;61.43;99798.09;683147;28;1319;-90
2023/12/25 00:51:03;;;;;;;3.25;2.55;;;;;;;15.73;61.26;99793.72;685363;28;1318;-89
2023/12/25 00:51:25;;;;;;;3.08;2.38;;;;;;;15.63;61.28;99793.78;680501;29;1313;-89
2023/12/25 00:51:45;;;;;;;3.47;2.60;;;;;;;15.67;61.46;99793.78;680427;29;1147;-90
2023/12/25 00:52:06;;;;;;;3.65;2.65;;;;;;;15.78;61.39;99805.06;678500;29;1150;-91
2023/12/25 00:52:32;;;;;;;3.58;2.55;;;;;;;15.76;61.27;99794.53;680480;29;1312;-90
2023/12/25 00:52:56;;;;;;;3.38;2.45;;;;;;;15.75;61.05;99808.59;679537;29;1225;-91
2023/12/25 00:53:17;;;;;;;3.17;2.38;;;;;;;15.71;61.12;99796.34;680303;28;1176;-90
2023/12/25 00:53:41;;;;;;;3.10;2.50;;;;;;;15.75;61.19;99795.44;682665;29;1191;-90
2023/12/25 00:54:02;;;;;;;4.05;2.40;;;;;;;15.80;61.18;99802.44;682665;29;1390;-89
2023/12/25 00:54:22;;;;;;;4.05;2.50;;;;;;;15.76;61.23;99801.56;680275;29;1076;-90
2023/12/25 00:54:44;;;;;;;4.40;2.58;;;;;;;15.73;61.27;99806.88;680369;29;1347;-89
2023/12/25 00:55:05;;;;;;;3.20;2.60;;;;;;;15.76;61.22;99784.03;682865;29;1372;-90
2023/12/25 00:55:26;;;;;;;3.03;2.45;;;;;;;15.75;61.13;99792.81;683103;29;1143;-89
2023/12/25 00:55:47;;;;;;;3.08;2.47;;;;;;;15.88;61.12;99788.28;683063;29;1435;-90
2023/12/25 00:56:10;;;;;;;3.33;2.60;;;;;;;15.86;60.99;99789.22;682709;28;1384;-89
2023/12/25 00:56:33;;;;;;;3.72;2.60;;;;;;;15.81;60.97;99802.41;685180;28;1428;-90
2023/12/25 00:56:56;;;;;;;3.40;2.58;;;;;;;15.79;61.13;99803.31;680111;28;1313;-89
2023/12/25 00:57:19;;;;;;;3.47;2.50;;;;;;;15.74;61.25;99790.22;682801;28;1427;-91
2023/12/25 00:57:40;;;;;;;3.20;2.50;;;;;;;15.86;61.28;99800.59;682943;29;1505;-88
2023/12/25 00:58:01;;;;;;;3.30;2.60;;;;;;;15.83;61.26;99820.78;685545;28;1212;-90
2023/12/25 00:58:21;;;;;;;3.20;2.70;;;;;;;15.80;61.32;99803.28;680291;28;1322;-90
2023/12/25 00:58:42;;;;;;;3.10;2.50;;;;;;;15.66;61.29;99795.53;680447;28;1071;-89
2023/12/25 00:59:03;;;;;;;3.30;2.70;;;;;;;15.74;61.38;99819.13;685147;28;1254;-90
2023/12/25 00:59:25;;;;;;;3.88;2.80;;;;;;;15.74;61.36;99785.81;683071;29;1112;-90
2023/12/25 00:59:46;;;;;;;3.67;2.80;;;;;;;15.79;61.43;99792.78;682755;28;1305;-89
2023/12/25 01:00:07;;;;;;;3.30;2.60;;;;;;;15.79;61.76;99809.44;681277;28;1072;-89
2023/12/25 01:00:28;;;;;;;2.90;2.60;;;;;;;15.65;61.37;99790.25;682672;29;1348;-88
2023/12/25 01:00:49;;;;;;;3.10;2.80;;;;;;;15.77;61.57;99790.16;681232;28;1161;-89
2023/12/25 01:01:10;;;;;;;3.20;2.90;;;;;;;15.77;61.52;99805.94;682758;28;1283;-90
2023/12/25 01:01:31;;;;;;;3.20;2.90;;;;;;;15.81;61.54;99818.19;683077;29;1150;-89
2023/12/25 01:01:52;;;;;;;4.43;3.08;;;;;;;15.83;61.36;99787.50;679545;29;1346;-89
2023/12/25 01:02:12;;;;;;;4.60;3.05;;;;;;;15.86;61.45;99791.84;680282;29;1310;-90
2023/12/25 01:02:34;;;;;;;4.65;3.10;;;;;;;15.81;61.43;99791.00;680320;29;1219;-90
2023/12/25 01:02:56;;;;;;;3.92;3.00;;;;;;;15.74;61.42;99784.94;680166;28;1145;-90
2023/12/25 01:03:17;;;;;;;3.80;2.80;;;;;;;15.74;61.39;99790.22;685585;28;1296;-90
2023/12/25 01:03:38;;;;;;;3.25;2.70;;;;;;;15.82;61.45;99798.91;682710;29;1281;-89
2023/12/25 01:03:58;;;;;;;2.92;2.60;;;;;;;15.83;61.23;99794.50;685019;28;1199;-89
2023/12/25 01:04:19;;;;;;;3.45;2.80;;;;;;;15.94;61.36;99800.53;682837;29;1225;-89
2023/12/25 01:04:40;;;;;;;3.88;2.80;;;;;;;15.88;61.12;99798.81;677663;29;1219;-89
2023/12/25 01:05:02;;;;;;;4.20;2.90;;;;;;;15.90;61.29;99802.31;683500;28;1445;-89
2023/12/25 01:05:22;;;;;;;4.90;3.30;;;;;;;15.81;61.33;99783.13;685679;28;1319;-90
2023/12/25 01:05:43;;;;;;;4.80;3.37;;;;;;;15.80;61.37;99790.13;682952;29;1182;-89
2023/12/25 01:06:04;;;;;;;4.20;3.13;;;;;;;15.95;61.19;99804.91;678844;29;1375;-88
2023/12/25 01:06:26;;;;;;;3.00;2.60;;;;;;;15.93;61.22;99803.19;680331;29;1372;-90
2023/12/25 01:06:47;;;;;;;3.65;2.60;;;;;;;15.86;61.24;99791.84;688040;28;1315;-89
2023/12/25 01:07:08;;;;;;;3.25;2.50;;;;;;;15.92;61.22;99797.03;681642;28;1200;-90
2023/12/25 01:07:29;;;;;;;3.50;2.67;;;;;;;15.87;61.29;99776.03;680198;29;1922;-90
2023/12/25 01:07:50;;;;;;;3.53;2.70;;;;;;;15.82;61.54;99792.75;685480;28;1253;-90
2023/12/25 01:08:11;;;;;;;3.50;2.60;;;;;;;15.72;61.52;99798.09;682600;28;1273;-88
2023/12/25 01:08:32;;;;;;;3.50;2.40;;;;;;;15.86;61.60;99805.84;680422;29;1274;-90
2023/12/25 01:08:53;;;;;;;3.40;2.47;;;;;;;15.87;61.58;99790.97;677616;29;1355;-89
2023/12/25 01:09:14;;;;;;;4.70;2.90;;;;;;;15.88;61.37;99793.56;682738;28;1288;-89
2023/12/25 01:09:34;;;;;;;4.00;2.80;;;;;;;15.98;61.54;99790.84;680131;29;1484;-88
2023/12/25 01:09:56;;;;;;;3.83;2.58;;;;;;;15.97;61.32;99786.50;680354;29;1198;-91
2023/12/25 01:10:17;;;;;;;3.10;2.60;;;;;;;16.02;61.41;99795.19;681438;29;1311;-90
2023/12/25 01:10:38;;;;;;;3.65;2.80;;;;;;;15.93;61.20;99834.75;685485;28;1274;-88
2023/12/25 01:11:02;;;;;;;3.53;3.00;;;;;;;15.90;61.64;99785.66;682603;28;1171;-88
2023/12/25 01:11:22;;;;;;;3.05;2.75;;;;;;;15.93;61.49;99788.28;677856;29;1263;-89
2023/12/25 01:11:43;;;;;;;3.72;2.60;;;;;;;16.10;61.38;99806.50;683038;29;1281;-90
2023/12/25 01:12:07;;;;;;;3.97;2.67;;;;;;;16.02;61.18;99785.53;683285;28;1276;-89
2023/12/25 01:12:29;;;;;;;4.88;2.78;;;;;;;16.09;61.27;99796.88;685077;28;985;-87
2023/12/25 01:12:50;;;;;;;4.32;3.10;;;;;;;16.03;61.47;99786.41;682566;29;1212;-88
2023/12/25 01:13:11;;;;;;;4.17;3.00;;;;;;;16.10;61.20;99801.25;687296;28;1216;-89
2023/12/25 01:13:32;;;;;;;4.07;3.20;;;;;;;16.11;61.19;99807.38;685331;28;1310;-89
2023/12/25 01:13:52;;;;;;;3.90;3.20;;;;;;;16.03;61.28;99795.19;682820;29;1207;-89
2023/12/25 01:14:13;;;;;;;5.17;3.30;;;;;;;16.10;61.28;99790.72;677869;29;1189;-90
2023/12/25 01:14:34;;;;;;;5.63;3.33;;;;;;;16.11;61.46;99786.34;680118;29;1149;-89
2023/12/25 01:14:55;;;;;;;6.20;3.63;;;;;;;16.01;61.21;99788.19;682795;28;1261;-90
2023/12/25 01:15:15;;;;;;;5.25;3.80;;;;;;;16.17;61.31;99800.28;685396;28;1247;-90
2023/12/25 01:15:36;;;;;;;5.97;4.00;;;;;;;16.15;61.30;99790.66;685758;28;1276;-89
2023/12/25 01:15:57;;;;;;;5.73;3.97;;;;;;;16.08;61.12;99810.91;685414;28;1362;-89
2023/12/25 01:16:18;;;;;;;5.35;3.95;;;;;;;16.10;61.30;99790.72;688404;28;1268;-90
2023/12/25 01:16:39;;;;;;;5.10;3.80;;;;;;;16.12;61.11;99795.97;685787;28;1166;-90
2023/12/25 01:17:00;;;;;;;5.35;3.78;;;;;;;16.11;61.31;99784.56;683334;28;1193;-90
2023/12/25 01:17:21;;;;;;;5.25;3.70;;;;;;;16.12;61.15;99795.97;682985;29;1404;-89
2023/12/25 01:17:42;;;;;;;4.55;3.50;;;;;;;16.21;61.27;99797.66;683170;29;1306;-91
2023/12/25 01:18:04;;;;;;;4.50;3.42;;;;;;;16.13;61.27;99790.69;685457;28;1211;-89
2023/12/25 01:18:25;;;;;;;4.55;3.20;;;;;;;16.18;61.16;99794.13;683021;29;1071;-89
2023/12/25 01:18:46;;;;;;;4.18;3.10;;;;;;;16.21;61.04;99792.38;688138;28;1156;-89
2023/12/25 01:19:07;;;;;;;4.07;3.10;;;;;;;16.21;61.03;99800.28;685547;28;1335;-89
2023/12/25 01:19:27;;;;;;;3.85;3.20;;;;;;;16.03;61.21;99791.66;685649;28;1349;-91
2023/12/25 01:19:48;;;;;;;4.28;3.40;;;;;;;16.06;61.25;99804.81;682985;28;1209;-90
2023/12/25 01:20:10;;;;;;;3.67;3.03;;;;;;;16.10;61.43;99798.59;683714;28;1206;-91
2023/12/25 01:20:31;;;;;;;3.65;2.85;;;;;;;16.13;61.46;99811.75;683051;28;1282;-89
2023/12/25 01:20:52;;;;;;;3.60;2.90;;;;;;;16.07;61.37;99803.91;687352;28;1337;-90
2023/12/25 01:21:15;;;;;;;3.50;2.80;;;;;;;16.14;61.43;99809.97;685219;28;1262;-89
2023/12/25 01:21:36;;;;;;;3.20;2.80;;;;;;;16.04;61.30;99802.19;687586;28;1115;-89
2023/12/25 01:21:59;;;;;;;3.00;2.55;;;;;;;16.06;61.44;99785.50;684351;29;1200;-90
2023/12/25 01:22:20;;;;;;;3.00;2.60;;;;;;;16.14;61.31;99813.50;680778;29;1223;-89
2023/12/25 01:22:40;;;;;;;3.40;2.72;;;;;;;16.07;61.28;99796.03;687851;28;1472;-89
2023/12/25 01:23:01;;;;;;;3.65;2.80;;;;;;;16.14;61.36;99816.13;687018;28;1220;-89
2023/12/25 01:23:22;;;;;;;4.17;3.00;;;;;;;16.09;61.37;99791.59;685383;29;1273;-90
2023/12/25 01:23:45;;;;;;;4.70;3.20;;;;;;;16.08;61.28;99797.75;687473;28;1455;-89
2023/12/25 01:24:11;;;;;;;4.82;3.30;;;;;;;16.15;61.35;99804.72;687026;28;1272;-89
2023/12/25 01:24:32;;;;;;;5.47;3.23;;;;;;;16.24;61.20;99813.38;685226;29;1142;-90
2023/12/25 01:24:53;;;;;;;4.63;3.10;;;;;;;16.18;61.21;99807.28;684481;29;1607;-89
2023/12/25 01:25:13;;;;;;;4.40;2.90;;;;;;;16.25;61.24;99818.69;687095;28;1368;-90
2023/12/25 01:25:34;;;;;;;3.10;2.70;;;;;;;16.19;61.18;99800.28;682445;28;1337;-90
2023/12/25 01:25:55;;;;;;;3.00;2.53;;;;;;;16.16;60.97;99803.81;686658;28;1804;-90
2023/12/25 01:26:16;;;;;;;3.40;2.83;;;;;;;16.12;61.26;99831.03;684295;28;1315;-88
2023/12/25 01:26:36;;;;;;;4.27;3.00;;;;;;;16.06;61.30;99849.53;686755;28;1260;-88
2023/12/25 01:26:57;;;;;;;4.25;3.10;;;;;;;15.98;61.30;99809.28;686902;28;1441;-89
2023/12/25 01:27:18;;;;;;;3.67;2.75;;;;;;;15.97;61.25;99807.53;682836;28;1918;-91
2023/12/25 01:27:44;;;;;;;3.25;2.70;;;;;;;16.01;61.53;99804.84;683065;29;1286;-90
2023/12/25 01:28:05;;;;;;;3.30;2.88;;;;;;;15.89;61.60;99832.16;682423;28;1375;-91
2023/12/25 01:28:29;;;;;;;3.15;2.70;;;;;;;15.84;61.61;99831.31;677755;29;1304;-91
2023/12/25 01:28:56;;;;;;;3.97;2.80;;;;;;;15.86;61.59;99815.53;683765;28;1325;-91
2023/12/25 01:29:17;;;;;;;4.10;2.92;;;;;;;15.79;61.71;99837.50;680431;29;1197;-92
2023/12/25 01:29:41;;;;;;;3.67;3.13;;;;;;;15.89;61.63;99842.69;680350;29;1370;-90
2023/12/25 01:30:03;;;;;;;4.60;3.03;;;;;;;15.93;61.67;99822.47;677468;29;1294;-91
2023/12/25 01:30:27;;;;;;;5.57;3.20;;;;;;;15.86;61.41;99821.63;679498;29;1287;-92
2023/12/25 01:30:56;;;;;;;5.10;3.20;;;;;;;15.82;61.55;99814.69;682918;29;1162;-91
2023/12/25 01:31:21;;;;;;;4.25;2.85;;;;;;;15.81;61.67;99828.72;680311;28;1344;-90
2023/12/25 01:31:42;;;;;;;4.25;2.80;;;;;;;15.86;61.66;99831.31;680228;29;1135;-89
2023/12/25 01:32:03;;;;;;;3.80;3.00;;;;;;;15.75;61.59;99821.72;680493;29;1320;-89
2023/12/25 01:32:24;;;;;;;4.40;2.90;;;;;;;15.85;61.84;99832.19;682004;29;1536;-91
2023/12/25 01:32:45;;;;;;;4.80;2.90;;;;;;;15.82;61.71;99824.31;675219;29;1148;-90
2023/12/25 01:33:06;;;;;;;5.70;3.03;;;;;;;15.84;61.56;99825.16;678441;29;1116;-90
2023/12/25 01:33:27;;;;;;;5.20;3.10;;;;;;;15.88;61.83;99846.16;677663;29;1310;-90
2023/12/25 01:33:48;;;;;;;4.82;3.10;;;;;;;15.82;61.83;99827.84;685210;28;1297;-90
2023/12/25 01:34:14;;;;;;;4.75;3.20;;;;;;;15.82;62.09;99826.94;682628;28;1185;-90
2023/12/25 01:34:35;;;;;;;4.93;3.40;;;;;;;15.85;61.82;99829.56;680475;29;1199;-91
2023/12/25 01:34:57;;;;;;;4.00;3.00;;;;;;;15.75;61.77;99831.41;680092;29;1273;-91
2023/12/25 01:35:18;;;;;;;3.63;2.72;;;;;;;15.77;62.17;99827.00;683716;28;1262;-90
2023/12/25 01:35:38;;;;;;;3.70;2.90;;;;;;;15.73;61.96;99822.66;680369;28;1257;-91
2023/12/25 01:36:02;;;;;;;3.50;2.80;;;;;;;15.77;61.88;99832.25;682696;28;1237;-91
2023/12/25 01:36:26;;;;;;;3.70;2.97;;;;;;;15.83;61.88;99842.72;677604;29;1384;-91
2023/12/25 01:36:50;;;;;;;3.90;2.90;;;;;;;15.84;61.99;99828.69;685799;28;1298;-90
2023/12/25 01:37:11;;;;;;;3.80;2.90;;;;;;;15.91;61.92;99837.38;681291;29;1354;-91
2023/12/25 01:37:31;;;;;;;3.95;2.95;;;;;;;15.84;61.63;99815.53;680368;29;1420;-91
2023/12/25 01:37:52;;;;;;;4.47;3.10;;;;;;;15.78;61.90;99823.47;677644;29;1167;-91
2023/12/25 01:38:15;;;;;;;4.97;3.20;;;;;;;15.68;61.81;99832.34;677571;29;1162;-91
2023/12/25 01:38:36;;;;;;;4.82;3.30;;;;;;;15.72;62.13;99821.78;680216;29;1384;-89
2023/12/25 01:39:00;;;;;;;4.15;2.90;;;;;;;15.66;62.21;99844.63;682646;28;1256;-90
2023/12/25 01:39:23;;;;;;;3.22;2.75;;;;;;;15.61;62.23;99826.25;680413;29;1379;-92
2023/12/25 01:39:50;;;;;;;3.85;3.28;;;;;;;15.72;62.26;99818.25;682834;29;1228;-91
2023/12/25 01:40:11;;;;;;;4.43;3.50;;;;;;;15.75;62.11;99834.03;685167;28;1399;-91
2023/12/25 01:42:48;;;;;;;3.50;2.95;;;;;;;15.75;62.38;99845.41;687352;28;1100;-90
2023/12/25 01:43:10;;;;;;;3.83;3.00;;;;;;;15.83;62.23;99841.84;685264;28;1228;-90
2023/12/25 01:43:30;;;;;;;3.85;3.00;;;;;;;15.82;62.04;99837.47;681075;29;1666;-90
2023/12/25 01:43:57;;;;;;;4.20;3.20;;;;;;;15.87;62.00;99854.94;682711;29;1181;-90
2023/12/25 01:44:21;;;;;;;4.47;3.25;;;;;;;15.70;61.93;99843.72;685567;28;1028;-90
2023/12/25 01:44:46;;;;;;;4.10;3.22;;;;;;;15.63;62.08;99820.09;682812;28;1235;-91
2023/12/25 01:45:10;;;;;;;3.80;3.22;;;;;;;15.68;62.12;99827.06;682516;28;1267;-90
2023/12/25 01:45:31;;;;;;;3.55;3.10;;;;;;;15.72;62.17;99855.06;680253;29;1378;-92
2023/12/25 01:45:52;;;;;;;3.20;2.90;;;;;;;15.67;62.08;99822.72;682920;28;1257;-91
2023/12/25 01:46:15;;;;;;;3.60;3.00;;;;;;;15.71;62.20;99829.66;680137;29;1162;-91
2023/12/25 01:46:36;;;;;;;3.65;2.92;;;;;;;15.77;62.25;99827.00;684924;28;1485;-91
2023/12/25 01:46:57;;;;;;;3.20;2.72;;;;;;;15.86;62.15;99840.06;680183;29;1387;-90
2023/12/25 01:47:19;;;;;;;5.32;2.72;;;;;;;15.73;62.31;99830.56;680302;29;1961;-91
2023/12/25 01:47:43;;;;;;;5.88;2.95;;;;;;;15.75;62.15;99871.72;685667;28;1310;-92
2023/12/25 01:48:07;;;;;;;6.40;3.00;;;;;;;15.73;62.29;99841.06;684989;28;1188;-92
2023/12/25 01:48:32;;;;;;;4.45;3.00;;;;;;;15.77;62.15;99832.25;682990;28;1254;-91
2023/12/25 01:48:53;;;;;;;4.47;3.10;;;;;;;15.70;61.90;99817.41;682106;29;1469;-91
2023/12/25 01:49:15;;;;;;;3.65;2.92;;;;;;;15.75;62.23;99834.03;687998;28;1277;-92